UAE3PX VGHS-OMDB
Flight info
| Callsign | UAE3PX |
|---|---|
| Flight time | N/A |
| Altitude | 34000 |
| Route | IKOGU1C IKOGU A462 CEA G450 JJS A791 BPL L639 RASKI L301 RAGMA N571 VUSET A454 PASOV B540 MIVEK P574 IMPED |
| Aircraft | B77W/H-SDE1E2E3FGHIJ2J3J4J5M1RWXY/LB1D1 |
Departure
| Time | 2026-04-19 19:05 |
|---|---|
| Airport | Hazrat Shahjalal International Airport (VGHS) |
Arrival
| Time | N/A |
|---|---|
| Airport | Dubai International Airport (OMDB) |
| Time | Latitude | Longitude | Altitude | Speed | Heading |
|---|---|---|---|---|---|
| 2026-04-19 18:48 | 23.84731 | 90.40423 | 41 ft | 0 kts | 54° |
| 2026-04-19 18:56 | 23.84730 | 90.40422 | 41 ft | 0 kts | 54° |
| 2026-04-19 18:56 | 23.84721 | 90.40410 | 41 ft | 2 kts | 48° |
| 2026-04-19 18:57 | 23.84710 | 90.40397 | 39 ft | 2 kts | 40° |
| 2026-04-19 18:57 | 23.84697 | 90.40386 | 39 ft | 2 kts | 28° |
| 2026-04-19 18:57 | 23.84681 | 90.40379 | 38 ft | 2 kts | 8° |
| 2026-04-19 18:57 | 23.84665 | 90.40379 | 38 ft | 2 kts | 346° |
| 2026-04-19 18:58 | 23.84650 | 90.40385 | 38 ft | 2 kts | 329° |
| 2026-04-19 18:58 | 23.84641 | 90.40391 | 38 ft | 1 kts | 324° |
| 2026-04-19 18:58 | 23.84641 | 90.40392 | 38 ft | 0 kts | 324° |
| 2026-04-19 18:59 | 23.84683 | 90.40355 | 37 ft | 11 kts | 313° |
| 2026-04-19 19:00 | 23.84669 | 90.40283 | 41 ft | 10 kts | 236° |
| 2026-04-19 19:00 | 23.84656 | 90.40210 | 41 ft | 11 kts | 294° |
| 2026-04-19 19:00 | 23.84706 | 90.40153 | 41 ft | 11 kts | 322° |
| 2026-04-19 19:00 | 23.84765 | 90.40105 | 41 ft | 11 kts | 323° |
| 2026-04-19 19:01 | 23.84829 | 90.40054 | 41 ft | 12 kts | 324° |
| 2026-04-19 19:01 | 23.84905 | 90.39994 | 41 ft | 14 kts | 324° |
| 2026-04-19 19:01 | 23.84991 | 90.39925 | 40 ft | 16 kts | 324° |
| 2026-04-19 19:01 | 23.85088 | 90.39849 | 41 ft | 18 kts | 323° |
| 2026-04-19 19:02 | 23.85193 | 90.39766 | 41 ft | 20 kts | 324° |
| 2026-04-19 19:02 | 23.85306 | 90.39676 | 39 ft | 21 kts | 324° |
| 2026-04-19 19:02 | 23.85429 | 90.39578 | 41 ft | 22 kts | 324° |
| 2026-04-19 19:02 | 23.85557 | 90.39476 | 41 ft | 24 kts | 324° |
| 2026-04-19 19:03 | 23.85694 | 90.39367 | 41 ft | 24 kts | 324° |
| 2026-04-19 19:03 | 23.85762 | 90.39303 | 41 ft | 7 kts | 288° |
| 2026-04-19 19:03 | 23.85744 | 90.39237 | 41 ft | 13 kts | 238° |
| 2026-04-19 19:03 | 23.85671 | 90.39126 | 41 ft | 23 kts | 233° |
| 2026-04-19 19:04 | 23.85577 | 90.38987 | 40 ft | 23 kts | 233° |
| 2026-04-19 19:04 | 23.85457 | 90.38907 | 40 ft | 22 kts | 168° |
| 2026-04-19 19:04 | 23.85266 | 90.39040 | 40 ft | 60 kts | 144° |
| 2026-04-19 19:04 | 23.84732 | 90.39464 | 42 ft | 130 kts | 144° |
| 2026-04-19 19:05 | 23.83828 | 90.40180 | 44 ft | 185 kts | 143° |
| 2026-04-19 19:05 | 23.82768 | 90.41020 | 621 ft | 187 kts | 145° |
| 2026-04-19 19:05 | 23.81686 | 90.41862 | 1219 ft | 193 kts | 147° |
| 2026-04-19 19:05 | 23.80507 | 90.42657 | 1491 ft | 212 kts | 162° |
| 2026-04-19 19:06 | 23.78989 | 90.42973 | 1705 ft | 235 kts | 181° |
| 2026-04-19 19:06 | 23.77327 | 90.42802 | 2137 ft | 247 kts | 190° |
| 2026-04-19 19:06 | 23.75638 | 90.42341 | 2669 ft | 254 kts | 210° |
| 2026-04-19 19:06 | 23.74421 | 90.40955 | 3369 ft | 255 kts | 242° |
| 2026-04-19 19:07 | 23.73610 | 90.39250 | 4000 ft | 260 kts | 240° |
| 2026-04-19 19:07 | 23.72637 | 90.37553 | 4817 ft | 261 kts | 237° |
| 2026-04-19 19:07 | 23.71614 | 90.35939 | 5575 ft | 263 kts | 236° |
| 2026-04-19 19:07 | 23.70538 | 90.34290 | 6000 ft | 265 kts | 237° |
| 2026-04-19 19:08 | 23.69464 | 90.32637 | 6024 ft | 271 kts | 237° |
| 2026-04-19 19:08 | 23.68369 | 90.30960 | 6037 ft | 271 kts | 237° |
| 2026-04-19 19:08 | 23.67276 | 90.29290 | 6054 ft | 269 kts | 237° |
| 2026-04-19 19:08 | 23.66189 | 90.27636 | 6499 ft | 271 kts | 237° |
| 2026-04-19 19:09 | 23.65085 | 90.25956 | 7294 ft | 270 kts | 238° |
| 2026-04-19 19:09 | 23.63990 | 90.24294 | 8040 ft | 272 kts | 238° |
| 2026-04-19 19:09 | 23.62875 | 90.22601 | 8752 ft | 275 kts | 239° |
| 2026-04-19 19:09 | 23.61790 | 90.20897 | 9458 ft | 276 kts | 243° |
| 2026-04-19 19:10 | 23.60799 | 90.19082 | 10104 ft | 281 kts | 245° |
| 2026-04-19 19:10 | 23.59800 | 90.17177 | 10355 ft | 302 kts | 245° |
| 2026-04-19 19:10 | 23.58706 | 90.15109 | 10526 ft | 326 kts | 244° |
| 2026-04-19 19:10 | 23.57510 | 90.12880 | 10694 ft | 350 kts | 244° |
| 2026-04-19 19:11 | 23.56253 | 90.10557 | 11135 ft | 363 kts | 244° |
| 2026-04-19 19:11 | 23.54957 | 90.08170 | 11777 ft | 371 kts | 244° |
| 2026-04-19 19:11 | 23.53629 | 90.05725 | 12587 ft | 375 kts | 244° |
| 2026-04-19 19:11 | 23.52300 | 90.03278 | 13420 ft | 379 kts | 244° |
| 2026-04-19 19:12 | 23.50938 | 90.00769 | 14126 ft | 385 kts | 244° |
| 2026-04-19 19:12 | 23.49574 | 89.98256 | 14811 ft | 389 kts | 244° |
| 2026-04-19 19:12 | 23.48199 | 89.95724 | 15506 ft | 393 kts | 244° |
| 2026-04-19 19:12 | 23.46794 | 89.93138 | 16193 ft | 397 kts | 244° |
| 2026-04-19 19:13 | 23.45379 | 89.90534 | 16878 ft | 402 kts | 243° |
| 2026-04-19 19:13 | 23.43958 | 89.87921 | 17553 ft | 406 kts | 243° |
| 2026-04-19 19:13 | 23.42502 | 89.85243 | 18188 ft | 411 kts | 244° |
| 2026-04-19 19:13 | 23.41310 | 89.82419 | 18775 ft | 407 kts | 258° |
| 2026-04-19 19:14 | 23.40722 | 89.79438 | 19299 ft | 407 kts | 261° |
| 2026-04-19 19:14 | 23.40180 | 89.76433 | 19855 ft | 411 kts | 261° |
| 2026-04-19 19:14 | 23.39589 | 89.73363 | 20496 ft | 413 kts | 260° |
| 2026-04-19 19:14 | 23.38968 | 89.70304 | 21149 ft | 415 kts | 259° |
| 2026-04-19 19:15 | 23.38325 | 89.67208 | 21766 ft | 418 kts | 259° |
| 2026-04-19 19:15 | 23.37515 | 89.64186 | 22321 ft | 423 kts | 249° |
| 2026-04-19 19:15 | 23.36015 | 89.61401 | 22757 ft | 428 kts | 238° |
| 2026-04-19 19:15 | 23.34326 | 89.58697 | 23181 ft | 434 kts | 238° |
| 2026-04-19 19:16 | 23.32650 | 89.55987 | 23712 ft | 435 kts | 239° |
| 2026-04-19 19:16 | 23.30966 | 89.53235 | 24236 ft | 436 kts | 239° |
| 2026-04-19 19:16 | 23.29311 | 89.50503 | 24698 ft | 438 kts | 239° |
| 2026-04-19 19:16 | 23.27622 | 89.47698 | 25115 ft | 442 kts | 239° |
| 2026-04-19 19:17 | 23.25933 | 89.44883 | 25553 ft | 445 kts | 239° |
| 2026-04-19 19:17 | 23.24256 | 89.42085 | 25997 ft | 447 kts | 240° |
| 2026-04-19 19:17 | 23.22547 | 89.39235 | 26424 ft | 450 kts | 240° |
| 2026-04-19 19:17 | 23.20826 | 89.36366 | 26862 ft | 453 kts | 240° |
| 2026-04-19 19:18 | 23.19119 | 89.33524 | 27280 ft | 455 kts | 240° |
| 2026-04-19 19:18 | 23.17373 | 89.30618 | 27702 ft | 457 kts | 239° |
| 2026-04-19 19:18 | 23.15622 | 89.27705 | 28091 ft | 460 kts | 239° |
| 2026-04-19 19:18 | 23.13884 | 89.24818 | 28464 ft | 463 kts | 239° |
| 2026-04-19 19:19 | 23.12117 | 89.21882 | 28798 ft | 465 kts | 239° |
| 2026-04-19 19:19 | 23.10326 | 89.18909 | 29151 ft | 468 kts | 239° |
| 2026-04-19 19:19 | 23.08551 | 89.15965 | 29479 ft | 470 kts | 239° |
| 2026-04-19 19:20 | 23.04961 | 89.10014 | 30089 ft | 472 kts | 239° |
| 2026-04-19 19:20 | 23.03173 | 89.07054 | 30517 ft | 470 kts | 239° |
| 2026-04-19 19:20 | 23.01382 | 89.04091 | 31010 ft | 465 kts | 239° |
| 2026-04-19 19:20 | 22.99622 | 89.01179 | 31515 ft | 461 kts | 239° |
| 2026-04-19 19:21 | 22.97857 | 88.98260 | 31954 ft | 459 kts | 238° |
| 2026-04-19 19:21 | 22.96124 | 88.95394 | 32352 ft | 457 kts | 238° |
| 2026-04-19 19:21 | 22.94373 | 88.92500 | 32758 ft | 455 kts | 238° |
| 2026-04-19 19:21 | 22.92634 | 88.89629 | 33175 ft | 453 kts | 238° |
| 2026-04-19 19:22 | 22.90957 | 88.86740 | 33577 ft | 451 kts | 239° |
| 2026-04-19 19:22 | 22.89361 | 88.83859 | 33927 ft | 449 kts | 240° |
| 2026-04-19 19:22 | 22.87769 | 88.80938 | 34256 ft | 447 kts | 240° |
| 2026-04-19 19:22 | 22.86177 | 88.78020 | 34579 ft | 446 kts | 240° |
| 2026-04-19 19:23 | 22.84612 | 88.75171 | 34894 ft | 444 kts | 240° |
| 2026-04-19 19:23 | 22.83021 | 88.72291 | 35213 ft | 443 kts | 240° |
| 2026-04-19 19:23 | 22.81444 | 88.69450 | 35501 ft | 441 kts | 239° |
| 2026-04-19 19:23 | 22.79853 | 88.66591 | 35660 ft | 443 kts | 239° |
| 2026-04-19 19:24 | 22.78249 | 88.63712 | 35701 ft | 446 kts | 239° |
| 2026-04-19 19:24 | 22.75060 | 88.57988 | 35730 ft | 442 kts | 239° |
| 2026-04-19 19:25 | 22.72437 | 88.53284 | 35746 ft | 439 kts | 239° |
| 2026-04-19 19:25 | 22.69161 | 88.46497 | 35756 ft | 436 kts | 252° |
| 2026-04-19 19:26 | 22.68123 | 88.41120 | 35755 ft | 439 kts | 262° |
| 2026-04-19 19:26 | 22.68246 | 88.34470 | 35752 ft | 444 kts | 271° |
| 2026-04-19 19:27 | 22.68756 | 88.27788 | 35748 ft | 446 kts | 272° |
| 2026-04-19 19:27 | 22.69248 | 88.21102 | 35746 ft | 447 kts | 271° |
| 2026-04-19 19:28 | 22.69705 | 88.14385 | 35743 ft | 448 kts | 271° |
| 2026-04-19 19:28 | 22.70142 | 88.07664 | 35742 ft | 448 kts | 271° |
| 2026-04-19 19:29 | 22.70574 | 88.00926 | 35736 ft | 448 kts | 271° |
| 2026-04-19 19:29 | 22.71006 | 87.94163 | 35740 ft | 448 kts | 271° |
| 2026-04-19 19:30 | 22.71431 | 87.87474 | 35746 ft | 447 kts | 271° |
| 2026-04-19 19:30 | 22.71855 | 87.80759 | 35753 ft | 446 kts | 271° |
| 2026-04-19 19:31 | 22.72275 | 87.74078 | 35748 ft | 446 kts | 271° |
| 2026-04-19 19:31 | 22.72694 | 87.67355 | 35751 ft | 445 kts | 271° |
| 2026-04-19 19:32 | 22.73107 | 87.60675 | 35758 ft | 445 kts | 271° |
| 2026-04-19 19:32 | 22.73517 | 87.53996 | 35756 ft | 445 kts | 270° |
| 2026-04-19 19:33 | 22.73924 | 87.47329 | 35761 ft | 445 kts | 270° |
| 2026-04-19 19:33 | 22.74332 | 87.40609 | 35763 ft | 444 kts | 270° |
| 2026-04-19 19:34 | 22.74733 | 87.33939 | 35767 ft | 444 kts | 270° |
| 2026-04-19 19:34 | 22.75132 | 87.27277 | 35765 ft | 444 kts | 270° |
| 2026-04-19 19:35 | 22.75529 | 87.20582 | 35765 ft | 444 kts | 270° |
| 2026-04-19 19:35 | 22.75922 | 87.13917 | 35770 ft | 443 kts | 270° |
| 2026-04-19 19:36 | 22.76312 | 87.07261 | 35777 ft | 443 kts | 270° |
| 2026-04-19 19:36 | 22.76699 | 87.00596 | 35779 ft | 443 kts | 270° |
| 2026-04-19 19:37 | 22.77082 | 86.93953 | 35780 ft | 443 kts | 270° |
| 2026-04-19 19:37 | 22.77464 | 86.87293 | 35786 ft | 442 kts | 270° |
| 2026-04-19 19:38 | 22.77841 | 86.80659 | 35785 ft | 442 kts | 270° |
| 2026-04-19 19:38 | 22.78216 | 86.74027 | 35789 ft | 441 kts | 270° |
| 2026-04-19 19:39 | 22.78588 | 86.67384 | 35792 ft | 441 kts | 270° |
| 2026-04-19 19:39 | 22.78956 | 86.60762 | 35798 ft | 441 kts | 270° |
| 2026-04-19 19:40 | 22.79321 | 86.54153 | 35797 ft | 441 kts | 270° |
| 2026-04-19 19:40 | 22.79685 | 86.47509 | 35803 ft | 441 kts | 270° |
| 2026-04-19 19:41 | 22.80046 | 86.40869 | 35807 ft | 441 kts | 270° |
| 2026-04-19 19:41 | 22.80403 | 86.34239 | 35816 ft | 441 kts | 270° |
| 2026-04-19 19:42 | 22.80760 | 86.27582 | 35813 ft | 441 kts | 270° |
| 2026-04-19 19:42 | 22.81113 | 86.20954 | 35806 ft | 441 kts | 270° |
| 2026-04-19 19:43 | 22.81498 | 86.14343 | 35822 ft | 442 kts | 271° |
| 2026-04-19 19:43 | 22.82059 | 86.07687 | 35832 ft | 442 kts | 272° |
| 2026-04-19 19:44 | 22.82641 | 86.01074 | 35824 ft | 442 kts | 271° |
| 2026-04-19 19:44 | 22.83202 | 85.94444 | 35832 ft | 442 kts | 271° |
| 2026-04-19 19:45 | 22.83750 | 85.87777 | 35830 ft | 443 kts | 271° |
| 2026-04-19 19:45 | 22.84291 | 85.81143 | 35840 ft | 443 kts | 271° |
| 2026-04-19 19:46 | 22.84828 | 85.74504 | 35860 ft | 443 kts | 271° |
| 2026-04-19 19:46 | 22.85365 | 85.67848 | 35868 ft | 444 kts | 271° |
| 2026-04-19 19:47 | 22.85902 | 85.61162 | 35876 ft | 442 kts | 271° |
| 2026-04-19 19:47 | 22.86431 | 85.54543 | 35870 ft | 443 kts | 271° |
| 2026-04-19 19:48 | 22.86958 | 85.47908 | 35872 ft | 443 kts | 271° |
| 2026-04-19 19:48 | 22.87486 | 85.41226 | 35888 ft | 443 kts | 271° |
| 2026-04-19 19:49 | 22.88007 | 85.34599 | 35884 ft | 442 kts | 271° |
| 2026-04-19 19:49 | 22.88527 | 85.27942 | 35877 ft | 442 kts | 271° |
| 2026-04-19 19:50 | 22.89042 | 85.21316 | 35888 ft | 442 kts | 271° |
| 2026-04-19 19:50 | 22.89559 | 85.14643 | 35882 ft | 442 kts | 271° |
| 2026-04-19 19:51 | 22.90069 | 85.08019 | 35880 ft | 441 kts | 270° |
| 2026-04-19 19:51 | 22.90575 | 85.01423 | 35876 ft | 441 kts | 270° |
| 2026-04-19 19:52 | 22.91081 | 84.94797 | 35871 ft | 440 kts | 270° |
| 2026-04-19 19:52 | 22.91584 | 84.88164 | 35871 ft | 440 kts | 270° |
| 2026-04-19 19:53 | 22.92081 | 84.81583 | 35875 ft | 440 kts | 270° |
| 2026-04-19 19:53 | 22.92580 | 84.74934 | 35870 ft | 440 kts | 270° |
| 2026-04-19 19:54 | 22.93072 | 84.68338 | 35872 ft | 440 kts | 270° |
| 2026-04-19 19:54 | 22.93562 | 84.61725 | 35862 ft | 440 kts | 270° |
| 2026-04-19 19:55 | 22.94049 | 84.55125 | 35855 ft | 440 kts | 270° |
| 2026-04-19 19:55 | 22.94533 | 84.48545 | 35861 ft | 439 kts | 270° |
| 2026-04-19 19:56 | 22.95015 | 84.41930 | 35865 ft | 440 kts | 270° |
| 2026-04-19 19:56 | 22.95494 | 84.35320 | 35861 ft | 440 kts | 270° |
| 2026-04-19 19:57 | 22.95972 | 84.28702 | 35859 ft | 440 kts | 270° |
| 2026-04-19 19:57 | 22.96448 | 84.22050 | 35860 ft | 440 kts | 270° |
| 2026-04-19 19:58 | 22.96919 | 84.15464 | 35857 ft | 440 kts | 270° |
| 2026-04-19 19:58 | 22.97355 | 84.08826 | 35852 ft | 440 kts | 269° |
| 2026-04-19 19:59 | 22.97707 | 84.02220 | 35852 ft | 440 kts | 269° |
| 2026-04-19 19:59 | 22.98049 | 83.95604 | 35856 ft | 439 kts | 269° |
| 2026-04-19 20:00 | 22.98399 | 83.88980 | 35853 ft | 439 kts | 269° |
| 2026-04-19 20:00 | 22.98750 | 83.82381 | 35849 ft | 440 kts | 269° |
| 2026-04-19 20:01 | 22.99104 | 83.75714 | 35845 ft | 440 kts | 269° |
| 2026-04-19 20:01 | 22.99451 | 83.69111 | 35832 ft | 440 kts | 269° |
| 2026-04-19 20:02 | 22.99797 | 83.62454 | 35831 ft | 440 kts | 269° |
| 2026-04-19 20:02 | 23.00138 | 83.55869 | 35833 ft | 440 kts | 269° |
| 2026-04-19 20:03 | 23.00477 | 83.49243 | 35821 ft | 440 kts | 269° |
| 2026-04-19 20:03 | 23.00816 | 83.42603 | 35822 ft | 439 kts | 269° |
| 2026-04-19 20:04 | 23.01149 | 83.35990 | 35810 ft | 439 kts | 269° |
| 2026-04-19 20:04 | 23.01479 | 83.29393 | 35807 ft | 439 kts | 269° |
| 2026-04-19 20:05 | 23.01806 | 83.22804 | 35805 ft | 438 kts | 269° |
| 2026-04-19 20:05 | 23.02132 | 83.16173 | 35799 ft | 438 kts | 269° |
| 2026-04-19 20:06 | 23.02453 | 83.09594 | 35796 ft | 438 kts | 269° |
| 2026-04-19 20:06 | 23.02771 | 83.03015 | 35774 ft | 438 kts | 269° |
| 2026-04-19 20:07 | 23.03086 | 82.96428 | 35788 ft | 437 kts | 269° |
| 2026-04-19 20:07 | 23.03399 | 82.89851 | 35778 ft | 437 kts | 269° |
| 2026-04-19 20:08 | 23.03711 | 82.83229 | 35774 ft | 437 kts | 269° |
| 2026-04-19 20:08 | 23.04017 | 82.76668 | 35777 ft | 437 kts | 269° |
| 2026-04-19 20:09 | 23.04323 | 82.70038 | 35769 ft | 437 kts | 269° |
| 2026-04-19 20:09 | 23.04625 | 82.63467 | 35782 ft | 437 kts | 269° |
| 2026-04-19 20:10 | 23.04924 | 82.56902 | 35778 ft | 436 kts | 269° |
| 2026-04-19 20:10 | 23.05220 | 82.50314 | 35787 ft | 436 kts | 268° |
| 2026-04-19 20:11 | 23.05512 | 82.43770 | 35780 ft | 435 kts | 268° |
| 2026-04-19 20:11 | 23.05802 | 82.37217 | 35777 ft | 435 kts | 268° |
| 2026-04-19 20:12 | 23.06089 | 82.30642 | 35778 ft | 434 kts | 268° |
| 2026-04-19 20:12 | 23.06372 | 82.24132 | 35780 ft | 434 kts | 268° |
| 2026-04-19 20:13 | 23.06655 | 82.17565 | 35784 ft | 433 kts | 268° |
| 2026-04-19 20:13 | 23.07001 | 82.11061 | 35799 ft | 434 kts | 269° |
| 2026-04-19 20:14 | 23.07425 | 82.04540 | 35785 ft | 434 kts | 269° |
| 2026-04-19 20:14 | 23.07846 | 81.98021 | 35796 ft | 433 kts | 269° |
| 2026-04-19 20:15 | 23.08188 | 81.92551 | 35805 ft | 433 kts | 269° |
| 2026-04-19 20:15 | 23.08656 | 81.84932 | 35789 ft | 433 kts | 269° |
| 2026-04-19 20:16 | 23.09050 | 81.78422 | 35798 ft | 433 kts | 269° |
| 2026-04-19 20:16 | 23.09444 | 81.71894 | 35789 ft | 433 kts | 269° |
| 2026-04-19 20:17 | 23.09834 | 81.65379 | 35801 ft | 433 kts | 269° |
| 2026-04-19 20:17 | 23.10221 | 81.58873 | 35801 ft | 433 kts | 269° |
| 2026-04-19 20:18 | 23.10542 | 81.53439 | 35800 ft | 433 kts | 268° |
| 2026-04-19 20:18 | 23.10924 | 81.46935 | 35805 ft | 432 kts | 268° |
| 2026-04-19 20:19 | 23.11304 | 81.40430 | 35806 ft | 433 kts | 268° |
| 2026-04-19 20:19 | 23.11681 | 81.33901 | 35811 ft | 433 kts | 268° |
| 2026-04-19 20:20 | 23.12057 | 81.27369 | 35812 ft | 432 kts | 268° |
| 2026-04-19 20:20 | 23.12427 | 81.20874 | 35806 ft | 433 kts | 268° |
| 2026-04-19 20:21 | 23.12797 | 81.14362 | 35813 ft | 432 kts | 268° |
| 2026-04-19 20:21 | 23.13165 | 81.07812 | 35814 ft | 432 kts | 268° |
| 2026-04-19 20:22 | 23.13529 | 81.01299 | 35825 ft | 433 kts | 268° |
| 2026-04-19 20:22 | 23.13889 | 80.94792 | 35817 ft | 433 kts | 268° |
| 2026-04-19 20:23 | 23.14250 | 80.88233 | 35817 ft | 433 kts | 268° |
| 2026-04-19 20:23 | 23.14606 | 80.81714 | 35817 ft | 433 kts | 268° |
| 2026-04-19 20:24 | 23.14960 | 80.75198 | 35811 ft | 434 kts | 268° |
| 2026-04-19 20:24 | 23.15316 | 80.68667 | 35808 ft | 434 kts | 268° |
| 2026-04-19 20:25 | 23.15673 | 80.62096 | 35802 ft | 434 kts | 268° |
| 2026-04-19 20:25 | 23.16025 | 80.55553 | 35804 ft | 434 kts | 268° |
| 2026-04-19 20:26 | 23.16374 | 80.49026 | 35802 ft | 434 kts | 268° |
| 2026-04-19 20:26 | 23.16721 | 80.42481 | 35802 ft | 434 kts | 268° |
| 2026-04-19 20:27 | 23.17065 | 80.35929 | 35795 ft | 435 kts | 267° |
| 2026-04-19 20:27 | 23.17407 | 80.29382 | 35794 ft | 434 kts | 267° |
| 2026-04-19 20:28 | 23.17746 | 80.22828 | 35798 ft | 435 kts | 267° |
| 2026-04-19 20:28 | 23.18083 | 80.16268 | 35791 ft | 435 kts | 267° |
| 2026-04-19 20:29 | 23.18419 | 80.09680 | 35792 ft | 435 kts | 267° |
| 2026-04-19 20:29 | 23.18742 | 80.03135 | 35795 ft | 434 kts | 267° |
| 2026-04-19 20:30 | 23.19162 | 79.93343 | 35789 ft | 434 kts | 267° |
| 2026-04-19 20:30 | 23.19440 | 79.86801 | 35788 ft | 433 kts | 267° |
| 2026-04-19 20:31 | 23.19719 | 79.80260 | 35792 ft | 433 kts | 267° |
| 2026-04-19 20:31 | 23.19996 | 79.73714 | 35789 ft | 433 kts | 267° |
| 2026-04-19 20:32 | 23.20269 | 79.67202 | 35786 ft | 433 kts | 266° |
| 2026-04-19 20:32 | 23.20541 | 79.60663 | 35789 ft | 433 kts | 266° |
| 2026-04-19 20:33 | 23.20786 | 79.54146 | 35788 ft | 432 kts | 266° |
| 2026-04-19 20:33 | 23.20908 | 79.47583 | 35787 ft | 431 kts | 265° |
| 2026-04-19 20:34 | 23.21007 | 79.41081 | 35788 ft | 432 kts | 265° |
| 2026-04-19 20:34 | 23.21118 | 79.34571 | 35781 ft | 432 kts | 265° |
| 2026-04-19 20:35 | 23.21233 | 79.28018 | 35783 ft | 432 kts | 265° |
| 2026-04-19 20:35 | 23.21348 | 79.21512 | 35788 ft | 432 kts | 265° |
| 2026-04-19 20:36 | 23.21459 | 79.14999 | 35782 ft | 432 kts | 265° |
| 2026-04-19 20:36 | 23.21569 | 79.08437 | 35787 ft | 432 kts | 265° |
| 2026-04-19 20:37 | 23.21674 | 79.01915 | 35781 ft | 433 kts | 265° |
| 2026-04-19 20:37 | 23.21778 | 78.95361 | 35786 ft | 433 kts | 265° |
| 2026-04-19 20:38 | 23.21879 | 78.88851 | 35784 ft | 434 kts | 265° |
| 2026-04-19 20:38 | 23.21978 | 78.82284 | 35789 ft | 434 kts | 265° |
| 2026-04-19 20:39 | 23.22074 | 78.75730 | 35790 ft | 434 kts | 265° |
| 2026-04-19 20:39 | 23.22255 | 78.69165 | 35794 ft | 436 kts | 266° |
| 2026-04-19 20:40 | 23.22599 | 78.62582 | 35802 ft | 437 kts | 267° |
| 2026-04-19 20:40 | 23.22949 | 78.55967 | 35802 ft | 438 kts | 266° |
| 2026-04-19 20:41 | 23.23274 | 78.49374 | 35799 ft | 438 kts | 266° |
| 2026-04-19 20:41 | 23.23587 | 78.42743 | 35797 ft | 438 kts | 266° |
| 2026-04-19 20:42 | 23.23893 | 78.36133 | 35798 ft | 437 kts | 266° |
| 2026-04-19 20:42 | 23.24197 | 78.29528 | 35798 ft | 437 kts | 266° |
| 2026-04-19 20:43 | 23.24497 | 78.22950 | 35807 ft | 437 kts | 266° |
| 2026-04-19 20:43 | 23.24797 | 78.16322 | 35802 ft | 437 kts | 266° |
| 2026-04-19 20:44 | 23.25092 | 78.09742 | 35807 ft | 437 kts | 266° |
| 2026-04-19 20:44 | 23.25387 | 78.03155 | 35808 ft | 436 kts | 266° |
| 2026-04-19 20:45 | 23.25672 | 77.96612 | 35808 ft | 436 kts | 266° |
| 2026-04-19 20:45 | 23.25960 | 77.89986 | 35814 ft | 436 kts | 266° |